ACA2201 MMUN-CYEG
Flight info
| Callsign | ACA2201 |
|---|---|
| Flight time | 5h 37m |
| Altitude | 34000 |
| Route | NOSUG2A NOSUG UT27 PISAD L333 HRV DCT RZC/N0454F360 DCT GRI DCT DPR DCT YEA DCT CAMRA IGSOX3 |
| Aircraft | B38M/M-SDE1FGHILORVWXY/HB1 |
Departure
| Time | 2026-04-27 08:47 |
|---|---|
| Airport | Cancún International Airport (MMUN) |
Arrival
| Time | 2026-04-27 14:24 |
|---|---|
| Airport | Edmonton International Airport (CYEG) |
| Time | Latitude | Longitude | Altitude | Speed | Heading |
|---|---|---|---|---|---|
| 2026-04-27 08:30 | 21.03587 | -86.86779 | 31 ft | 0 kts | 308° |
| 2026-04-27 08:37 | 21.03583 | -86.86773 | 31 ft | 4 kts | 308° |
| 2026-04-27 08:38 | 21.03566 | -86.86750 | 31 ft | 4 kts | 308° |
| 2026-04-27 08:38 | 21.03552 | -86.86731 | 31 ft | 4 kts | 300° |
| 2026-04-27 08:38 | 21.03550 | -86.86708 | 31 ft | 4 kts | 243° |
| 2026-04-27 08:38 | 21.03566 | -86.86687 | 31 ft | 3 kts | 215° |
| 2026-04-27 08:39 | 21.03569 | -86.86686 | 31 ft | 2 kts | 214° |
| 2026-04-27 08:41 | 21.03554 | -86.86696 | 31 ft | 6 kts | 213° |
| 2026-04-27 08:41 | 21.03496 | -86.86737 | 31 ft | 14 kts | 213° |
| 2026-04-27 08:41 | 21.03402 | -86.86801 | 32 ft | 17 kts | 213° |
| 2026-04-27 08:41 | 21.03354 | -86.86903 | 32 ft | 18 kts | 300° |
| 2026-04-27 08:42 | 21.03432 | -86.87031 | 33 ft | 22 kts | 304° |
| 2026-04-27 08:42 | 21.03511 | -86.87153 | 33 ft | 19 kts | 304° |
| 2026-04-27 08:42 | 21.03588 | -86.87278 | 33 ft | 20 kts | 303° |
| 2026-04-27 08:42 | 21.03667 | -86.87407 | 34 ft | 21 kts | 304° |
| 2026-04-27 08:43 | 21.03752 | -86.87540 | 33 ft | 22 kts | 304° |
| 2026-04-27 08:43 | 21.03840 | -86.87679 | 33 ft | 23 kts | 304° |
| 2026-04-27 08:43 | 21.03930 | -86.87825 | 33 ft | 24 kts | 303° |
| 2026-04-27 08:43 | 21.04012 | -86.87956 | 33 ft | 20 kts | 304° |
| 2026-04-27 08:44 | 21.04090 | -86.88081 | 32 ft | 21 kts | 304° |
| 2026-04-27 08:44 | 21.04173 | -86.88210 | 33 ft | 22 kts | 304° |
| 2026-04-27 08:44 | 21.04256 | -86.88341 | 33 ft | 20 kts | 304° |
| 2026-04-27 08:44 | 21.04326 | -86.88452 | 33 ft | 17 kts | 303° |
| 2026-04-27 08:45 | 21.04393 | -86.88562 | 33 ft | 20 kts | 303° |
| 2026-04-27 08:45 | 21.04495 | -86.88722 | 33 ft | 29 kts | 304° |
| 2026-04-27 08:45 | 21.04588 | -86.88870 | 33 ft | 14 kts | 303° |
| 2026-04-27 08:45 | 21.04630 | -86.88940 | 32 ft | 12 kts | 300° |
| 2026-04-27 08:46 | 21.04616 | -86.89016 | 33 ft | 12 kts | 213° |
| 2026-04-27 08:46 | 21.04555 | -86.89065 | 34 ft | 11 kts | 218° |
| 2026-04-27 08:46 | 21.04497 | -86.89042 | 34 ft | 14 kts | 124° |
| 2026-04-27 08:46 | 21.04309 | -86.88740 | 37 ft | 85 kts | 123° |
| 2026-04-27 08:47 | 21.03855 | -86.88019 | 35 ft | 147 kts | 123° |
| 2026-04-27 08:47 | 21.03212 | -86.87003 | 275 ft | 174 kts | 124° |
| 2026-04-27 08:47 | 21.02546 | -86.85878 | 824 ft | 184 kts | 122° |
| 2026-04-27 08:47 | 21.01875 | -86.84673 | 1380 ft | 192 kts | 120° |
| 2026-04-27 08:48 | 21.01550 | -86.83465 | 1775 ft | 204 kts | 88° |
| 2026-04-27 08:48 | 21.01574 | -86.83205 | 1803 ft | 208 kts | 81° |
| 2026-04-27 08:48 | 21.02375 | -86.81880 | 1986 ft | 231 kts | 37° |
| 2026-04-27 08:48 | 21.03884 | -86.81127 | 2538 ft | 240 kts | 28° |
| 2026-04-27 08:49 | 21.05392 | -86.80342 | 3351 ft | 245 kts | 30° |
| 2026-04-27 08:49 | 21.06954 | -86.79463 | 3812 ft | 263 kts | 30° |
| 2026-04-27 08:49 | 21.08594 | -86.78534 | 3879 ft | 271 kts | 24° |
| 2026-04-27 08:49 | 21.10429 | -86.78224 | 3870 ft | 274 kts | 356° |
| 2026-04-27 08:50 | 21.12321 | -86.78563 | 3947 ft | 277 kts | 351° |
| 2026-04-27 08:50 | 21.14223 | -86.78937 | 3942 ft | 278 kts | 351° |
| 2026-04-27 08:50 | 21.16132 | -86.79322 | 3942 ft | 279 kts | 351° |
| 2026-04-27 08:50 | 21.18036 | -86.79711 | 3936 ft | 279 kts | 350° |
| 2026-04-27 08:51 | 21.19949 | -86.80089 | 4164 ft | 280 kts | 351° |
| 2026-04-27 08:51 | 21.21848 | -86.80454 | 5121 ft | 277 kts | 349° |
| 2026-04-27 08:51 | 21.23752 | -86.80823 | 5964 ft | 279 kts | 349° |
| 2026-04-27 08:51 | 21.25660 | -86.81193 | 6814 ft | 279 kts | 349° |
| 2026-04-27 08:52 | 21.27573 | -86.81564 | 7614 ft | 281 kts | 349° |
| 2026-04-27 08:52 | 21.29503 | -86.81939 | 8412 ft | 282 kts | 349° |
| 2026-04-27 08:52 | 21.31434 | -86.82314 | 9270 ft | 282 kts | 349° |
| 2026-04-27 08:52 | 21.33380 | -86.82692 | 10012 ft | 287 kts | 349° |
| 2026-04-27 08:53 | 21.35386 | -86.83082 | 10450 ft | 302 kts | 349° |
| 2026-04-27 08:53 | 21.37518 | -86.83497 | 10765 ft | 319 kts | 349° |
| 2026-04-27 08:53 | 21.39745 | -86.83930 | 11233 ft | 329 kts | 349° |
| 2026-04-27 08:53 | 21.41993 | -86.84368 | 12002 ft | 329 kts | 349° |
| 2026-04-27 08:54 | 21.44263 | -86.84810 | 12682 ft | 333 kts | 349° |
| 2026-04-27 08:54 | 21.46547 | -86.85255 | 13407 ft | 334 kts | 349° |
| 2026-04-27 08:54 | 21.48847 | -86.85703 | 14071 ft | 337 kts | 349° |
| 2026-04-27 08:54 | 21.51156 | -86.86153 | 14696 ft | 339 kts | 349° |
| 2026-04-27 08:55 | 21.53486 | -86.86607 | 15303 ft | 341 kts | 349° |
| 2026-04-27 08:55 | 21.55830 | -86.87064 | 15903 ft | 344 kts | 349° |
| 2026-04-27 08:55 | 21.58192 | -86.87525 | 16495 ft | 346 kts | 349° |
| 2026-04-27 08:55 | 21.60572 | -86.87989 | 17070 ft | 349 kts | 349° |
| 2026-04-27 08:56 | 21.62966 | -86.88457 | 17621 ft | 351 kts | 349° |
| 2026-04-27 08:56 | 21.65380 | -86.88928 | 18175 ft | 354 kts | 349° |
| 2026-04-27 08:56 | 21.67809 | -86.89404 | 18637 ft | 356 kts | 349° |
| 2026-04-27 08:56 | 21.70232 | -86.89877 | 19078 ft | 359 kts | 349° |
| 2026-04-27 08:57 | 21.75186 | -86.90846 | 19950 ft | 365 kts | 349° |
| 2026-04-27 08:57 | 21.77694 | -86.91337 | 20389 ft | 368 kts | 349° |
| 2026-04-27 08:57 | 21.80214 | -86.91830 | 20841 ft | 370 kts | 349° |
| 2026-04-27 08:58 | 21.82756 | -86.92327 | 21272 ft | 372 kts | 348° |
| 2026-04-27 08:58 | 21.85319 | -86.92824 | 21700 ft | 375 kts | 350° |
| 2026-04-27 08:58 | 21.87938 | -86.93052 | 22124 ft | 378 kts | 355° |
| 2026-04-27 08:58 | 21.90576 | -86.93247 | 22535 ft | 381 kts | 354° |
| 2026-04-27 08:59 | 21.93234 | -86.93460 | 22949 ft | 384 kts | 354° |
| 2026-04-27 08:59 | 21.95911 | -86.93685 | 23355 ft | 387 kts | 354° |
| 2026-04-27 08:59 | 21.98605 | -86.93915 | 23715 ft | 390 kts | 354° |
| 2026-04-27 08:59 | 22.01316 | -86.94149 | 24080 ft | 392 kts | 353° |
| 2026-04-27 09:00 | 22.04036 | -86.94384 | 24447 ft | 393 kts | 353° |
| 2026-04-27 09:00 | 22.06764 | -86.94620 | 24829 ft | 394 kts | 353° |
| 2026-04-27 09:00 | 22.09506 | -86.94857 | 25194 ft | 396 kts | 353° |
| 2026-04-27 09:00 | 22.12219 | -86.95093 | 25590 ft | 396 kts | 353° |
| 2026-04-27 09:01 | 22.14977 | -86.95331 | 25970 ft | 397 kts | 353° |
| 2026-04-27 09:01 | 22.17742 | -86.95571 | 26316 ft | 399 kts | 353° |
| 2026-04-27 09:01 | 22.20521 | -86.95812 | 26654 ft | 401 kts | 353° |
| 2026-04-27 09:01 | 22.23306 | -86.96053 | 26991 ft | 402 kts | 353° |
| 2026-04-27 09:02 | 22.26103 | -86.96296 | 27316 ft | 404 kts | 353° |
| 2026-04-27 09:02 | 22.28915 | -86.96540 | 27640 ft | 406 kts | 353° |
| 2026-04-27 09:02 | 22.31738 | -86.96786 | 27964 ft | 408 kts | 353° |
| 2026-04-27 09:02 | 22.34572 | -86.97032 | 28280 ft | 410 kts | 353° |
| 2026-04-27 09:03 | 22.37419 | -86.97279 | 28591 ft | 411 kts | 353° |
| 2026-04-27 09:03 | 22.40280 | -86.97528 | 28904 ft | 413 kts | 353° |
| 2026-04-27 09:03 | 22.43150 | -86.97778 | 29213 ft | 415 kts | 353° |
| 2026-04-27 09:03 | 22.46031 | -86.98029 | 29549 ft | 416 kts | 352° |
| 2026-04-27 09:04 | 22.48920 | -86.98280 | 29868 ft | 417 kts | 352° |
| 2026-04-27 09:04 | 22.51819 | -86.98533 | 30127 ft | 419 kts | 352° |
| 2026-04-27 09:04 | 22.54733 | -86.98787 | 30364 ft | 421 kts | 352° |
| 2026-04-27 09:04 | 22.57659 | -86.99042 | 30593 ft | 423 kts | 352° |
| 2026-04-27 09:05 | 22.60600 | -86.99298 | 30817 ft | 425 kts | 352° |
| 2026-04-27 09:05 | 22.63514 | -86.99552 | 31044 ft | 427 kts | 352° |
| 2026-04-27 09:05 | 22.66486 | -86.99812 | 31265 ft | 429 kts | 352° |
| 2026-04-27 09:05 | 22.69466 | -87.00072 | 31514 ft | 430 kts | 352° |
| 2026-04-27 09:06 | 22.72450 | -87.00333 | 31809 ft | 430 kts | 352° |
| 2026-04-27 09:06 | 22.75434 | -87.00594 | 32118 ft | 430 kts | 352° |
| 2026-04-27 09:06 | 22.78418 | -87.00855 | 32415 ft | 430 kts | 352° |
| 2026-04-27 09:06 | 22.81391 | -87.01115 | 32725 ft | 429 kts | 352° |
| 2026-04-27 09:07 | 22.83360 | -87.01287 | 32926 ft | 429 kts | 352° |
| 2026-04-27 09:07 | 22.87343 | -87.01636 | 33322 ft | 428 kts | 352° |
| 2026-04-27 09:07 | 22.89308 | -87.01808 | 33513 ft | 428 kts | 352° |
| 2026-04-27 09:07 | 22.92277 | -87.02068 | 33787 ft | 428 kts | 352° |
| 2026-04-27 09:08 | 22.95248 | -87.02328 | 33966 ft | 429 kts | 352° |
| 2026-04-27 09:08 | 23.01190 | -87.02850 | 33960 ft | 426 kts | 352° |
| 2026-04-27 09:09 | 23.07105 | -87.03366 | 33955 ft | 426 kts | 352° |
| 2026-04-27 09:09 | 23.12976 | -87.03876 | 33957 ft | 425 kts | 352° |
| 2026-04-27 09:10 | 23.18866 | -87.04388 | 33960 ft | 425 kts | 352° |
| 2026-04-27 09:10 | 23.24766 | -87.04901 | 33958 ft | 425 kts | 352° |
| 2026-04-27 09:11 | 23.30655 | -87.05413 | 33958 ft | 425 kts | 352° |
| 2026-04-27 09:11 | 23.36548 | -87.05927 | 33957 ft | 425 kts | 352° |
| 2026-04-27 09:12 | 23.42438 | -87.06441 | 33977 ft | 424 kts | 351° |
| 2026-04-27 09:12 | 23.48291 | -87.06951 | 33963 ft | 421 kts | 351° |
| 2026-04-27 09:13 | 23.54134 | -87.07461 | 33958 ft | 421 kts | 351° |
| 2026-04-27 09:13 | 23.59982 | -87.07972 | 33960 ft | 421 kts | 351° |
| 2026-04-27 09:14 | 23.65789 | -87.08480 | 33963 ft | 421 kts | 351° |
| 2026-04-27 09:14 | 23.71630 | -87.08992 | 33956 ft | 421 kts | 351° |
| 2026-04-27 09:15 | 23.77471 | -87.09504 | 33958 ft | 419 kts | 351° |
| 2026-04-27 09:15 | 23.83284 | -87.10013 | 33958 ft | 419 kts | 351° |
| 2026-04-27 09:16 | 23.89099 | -87.10524 | 33958 ft | 419 kts | 351° |
| 2026-04-27 09:16 | 23.94909 | -87.11035 | 33960 ft | 419 kts | 351° |
| 2026-04-27 09:17 | 24.00724 | -87.11546 | 33963 ft | 419 kts | 351° |
| 2026-04-27 09:17 | 24.06520 | -87.12057 | 33972 ft | 419 kts | 351° |
| 2026-04-27 09:18 | 24.12324 | -87.12568 | 33967 ft | 418 kts | 351° |
| 2026-04-27 09:18 | 24.18135 | -87.13080 | 33966 ft | 419 kts | 351° |
| 2026-04-27 09:19 | 24.23943 | -87.13593 | 33966 ft | 418 kts | 351° |
| 2026-04-27 09:19 | 24.29690 | -87.14383 | 33942 ft | 411 kts | 338° |
| 2026-04-27 09:20 | 24.35114 | -87.16369 | 33941 ft | 412 kts | 338° |
| 2026-04-27 09:20 | 24.40545 | -87.18356 | 33964 ft | 411 kts | 338° |
| 2026-04-27 09:21 | 24.45932 | -87.20349 | 33967 ft | 411 kts | 338° |
| 2026-04-27 09:21 | 24.51344 | -87.22357 | 33966 ft | 411 kts | 338° |
| 2026-04-27 09:22 | 24.56759 | -87.24368 | 33969 ft | 411 kts | 338° |
| 2026-04-27 09:22 | 24.62186 | -87.26385 | 33966 ft | 411 kts | 338° |
| 2026-04-27 09:23 | 24.67603 | -87.28401 | 33969 ft | 411 kts | 338° |
| 2026-04-27 09:23 | 24.73016 | -87.30416 | 33968 ft | 411 kts | 338° |
| 2026-04-27 09:24 | 24.78431 | -87.32434 | 33966 ft | 411 kts | 338° |
| 2026-04-27 09:24 | 24.83843 | -87.34453 | 33967 ft | 410 kts | 338° |
| 2026-04-27 09:25 | 24.89244 | -87.36470 | 33965 ft | 410 kts | 338° |
| 2026-04-27 09:25 | 24.94644 | -87.38488 | 33966 ft | 410 kts | 338° |
| 2026-04-27 09:26 | 25.00049 | -87.40510 | 33989 ft | 410 kts | 338° |
| 2026-04-27 09:26 | 25.05415 | -87.42528 | 33972 ft | 409 kts | 338° |
| 2026-04-27 09:27 | 25.10800 | -87.44589 | 33969 ft | 409 kts | 338° |
| 2026-04-27 09:27 | 25.16179 | -87.46647 | 33971 ft | 409 kts | 338° |
| 2026-04-27 09:28 | 25.21569 | -87.48711 | 33971 ft | 409 kts | 338° |
| 2026-04-27 09:28 | 25.26950 | -87.50774 | 33973 ft | 409 kts | 338° |
| 2026-04-27 09:29 | 25.32298 | -87.52825 | 33992 ft | 409 kts | 338° |
| 2026-04-27 09:29 | 25.37667 | -87.54888 | 33977 ft | 408 kts | 338° |
| 2026-04-27 09:30 | 25.43037 | -87.56952 | 33972 ft | 409 kts | 338° |
| 2026-04-27 09:30 | 25.48410 | -87.59019 | 33974 ft | 408 kts | 338° |
| 2026-04-27 09:31 | 25.53780 | -87.61087 | 33980 ft | 408 kts | 338° |
| 2026-04-27 09:31 | 25.59150 | -87.63157 | 33977 ft | 408 kts | 338° |
| 2026-04-27 09:32 | 25.64516 | -87.65227 | 33985 ft | 408 kts | 338° |
| 2026-04-27 09:32 | 25.69877 | -87.67297 | 33978 ft | 408 kts | 338° |
| 2026-04-27 09:33 | 25.75207 | -87.69358 | 33974 ft | 408 kts | 338° |
| 2026-04-27 09:33 | 25.80571 | -87.71434 | 33968 ft | 408 kts | 338° |
| 2026-04-27 09:34 | 25.85944 | -87.73514 | 33974 ft | 409 kts | 338° |
| 2026-04-27 09:34 | 25.91322 | -87.75600 | 33974 ft | 409 kts | 338° |
| 2026-04-27 09:35 | 25.96701 | -87.77687 | 33980 ft | 408 kts | 338° |
| 2026-04-27 09:35 | 26.02048 | -87.79764 | 33976 ft | 407 kts | 338° |
| 2026-04-27 09:36 | 26.07399 | -87.81844 | 33974 ft | 407 kts | 338° |
| 2026-04-27 09:36 | 26.12751 | -87.83927 | 33974 ft | 408 kts | 338° |
| 2026-04-27 09:37 | 26.18102 | -87.86012 | 33978 ft | 407 kts | 338° |
| 2026-04-27 09:37 | 26.23423 | -87.88087 | 33974 ft | 407 kts | 338° |
| 2026-04-27 09:38 | 26.28768 | -87.90173 | 33972 ft | 406 kts | 338° |
| 2026-04-27 09:38 | 26.34098 | -87.92255 | 33973 ft | 406 kts | 338° |
| 2026-04-27 09:39 | 26.39423 | -87.94338 | 33978 ft | 406 kts | 338° |
| 2026-04-27 09:39 | 26.44757 | -87.96426 | 33974 ft | 405 kts | 338° |
| 2026-04-27 09:40 | 26.50052 | -87.98501 | 33975 ft | 406 kts | 338° |
| 2026-04-27 09:40 | 26.55382 | -88.00592 | 34000 ft | 406 kts | 337° |
| 2026-04-27 09:41 | 26.60702 | -88.02680 | 33975 ft | 404 kts | 337° |
| 2026-04-27 09:41 | 26.66014 | -88.04768 | 33982 ft | 404 kts | 337° |
| 2026-04-27 09:42 | 26.71322 | -88.06856 | 33971 ft | 404 kts | 337° |
| 2026-04-27 09:42 | 26.76635 | -88.08949 | 33978 ft | 404 kts | 337° |
| 2026-04-27 09:43 | 26.81912 | -88.11029 | 33978 ft | 404 kts | 337° |
| 2026-04-27 09:43 | 26.87218 | -88.13123 | 33993 ft | 404 kts | 337° |
| 2026-04-27 09:44 | 26.92522 | -88.15217 | 33977 ft | 404 kts | 337° |
| 2026-04-27 09:44 | 26.97826 | -88.17314 | 33978 ft | 404 kts | 337° |
| 2026-04-27 09:45 | 27.03127 | -88.19412 | 33974 ft | 404 kts | 337° |
| 2026-04-27 09:45 | 27.08434 | -88.21514 | 33980 ft | 404 kts | 337° |
| 2026-04-27 09:46 | 27.13706 | -88.23605 | 33980 ft | 404 kts | 337° |
| 2026-04-27 09:46 | 27.19007 | -88.25709 | 33988 ft | 404 kts | 337° |
| 2026-04-27 09:47 | 27.24303 | -88.27812 | 33979 ft | 404 kts | 337° |
| 2026-04-27 09:47 | 27.29609 | -88.29912 | 33981 ft | 404 kts | 337° |
| 2026-04-27 09:48 | 27.34920 | -88.31989 | 33974 ft | 404 kts | 337° |
| 2026-04-27 09:48 | 27.40236 | -88.34071 | 33977 ft | 404 kts | 337° |
| 2026-04-27 09:49 | 27.45546 | -88.36153 | 33982 ft | 404 kts | 337° |
| 2026-04-27 09:49 | 27.50852 | -88.38235 | 33982 ft | 404 kts | 337° |
| 2026-04-27 09:50 | 27.56158 | -88.40320 | 33980 ft | 404 kts | 337° |
| 2026-04-27 09:50 | 27.61463 | -88.42406 | 33979 ft | 404 kts | 337° |
| 2026-04-27 09:51 | 27.66770 | -88.44495 | 33980 ft | 404 kts | 337° |
| 2026-04-27 09:51 | 27.72075 | -88.46586 | 33979 ft | 404 kts | 337° |
| 2026-04-27 09:52 | 27.77382 | -88.48680 | 33974 ft | 404 kts | 337° |
| 2026-04-27 09:52 | 27.82660 | -88.50764 | 33980 ft | 404 kts | 337° |
| 2026-04-27 09:53 | 27.87972 | -88.52864 | 33981 ft | 404 kts | 337° |
| 2026-04-27 09:53 | 27.93277 | -88.54962 | 33980 ft | 404 kts | 337° |
| 2026-04-27 09:54 | 27.98585 | -88.57066 | 33980 ft | 404 kts | 337° |
| 2026-04-27 09:54 | 28.03895 | -88.59171 | 33980 ft | 404 kts | 337° |
| 2026-04-27 09:55 | 28.09207 | -88.61279 | 33985 ft | 404 kts | 337° |
| 2026-04-27 09:55 | 28.16255 | -88.64080 | 33978 ft | 403 kts | 337° |
| 2026-04-27 09:56 | 28.22380 | -88.66594 | 33973 ft | 400 kts | 329° |
| 2026-04-27 09:56 | 28.26225 | -88.69501 | 33965 ft | 398 kts | 323° |
| 2026-04-27 09:57 | 28.30734 | -88.73074 | 33982 ft | 398 kts | 323° |
| 2026-04-27 09:57 | 28.35241 | -88.76710 | 33979 ft | 397 kts | 322° |
| 2026-04-27 09:58 | 28.39745 | -88.80359 | 33980 ft | 398 kts | 323° |
| 2026-04-27 09:58 | 28.44255 | -88.84019 | 33979 ft | 398 kts | 323° |
| 2026-04-27 09:59 | 28.48754 | -88.87676 | 33977 ft | 397 kts | 322° |
| 2026-04-27 09:59 | 28.53250 | -88.91332 | 33978 ft | 397 kts | 322° |
| 2026-04-27 10:00 | 28.57742 | -88.94989 | 33977 ft | 397 kts | 322° |
| 2026-04-27 10:00 | 28.62231 | -88.98648 | 33979 ft | 397 kts | 322° |
| 2026-04-27 10:01 | 28.66718 | -89.02309 | 34000 ft | 397 kts | 322° |
| 2026-04-27 10:01 | 28.71182 | -89.05955 | 33980 ft | 398 kts | 322° |
| 2026-04-27 10:02 | 28.75689 | -89.09640 | 33978 ft | 398 kts | 322° |
| 2026-04-27 10:02 | 28.80187 | -89.13323 | 33976 ft | 398 kts | 322° |
| 2026-04-27 10:03 | 28.84685 | -89.17009 | 33977 ft | 398 kts | 322° |
| 2026-04-27 10:03 | 28.89183 | -89.20699 | 33977 ft | 398 kts | 322° |
| 2026-04-27 10:04 | 28.93680 | -89.24393 | 33969 ft | 398 kts | 322° |
| 2026-04-27 10:04 | 28.98175 | -89.28087 | 33978 ft | 399 kts | 322° |
| 2026-04-27 10:05 | 29.02684 | -89.31799 | 33977 ft | 399 kts | 322° |
| 2026-04-27 10:05 | 29.07190 | -89.35512 | 33978 ft | 399 kts | 322° |
| 2026-04-27 10:06 | 29.11672 | -89.39208 | 33975 ft | 399 kts | 322° |
| 2026-04-27 10:06 | 29.16180 | -89.42931 | 33973 ft | 399 kts | 322° |
| 2026-04-27 10:07 | 29.20682 | -89.46654 | 33972 ft | 399 kts | 322° |
| 2026-04-27 10:07 | 29.25184 | -89.50379 | 33994 ft | 399 kts | 322° |
| 2026-04-27 10:08 | 29.29692 | -89.54114 | 33979 ft | 400 kts | 322° |
| 2026-04-27 10:08 | 29.34207 | -89.57859 | 33972 ft | 401 kts | 322° |
| 2026-04-27 10:09 | 29.38720 | -89.61607 | 33971 ft | 401 kts | 322° |
| 2026-04-27 10:09 | 29.43230 | -89.65356 | 33971 ft | 400 kts | 322° |
| 2026-04-27 10:10 | 29.47743 | -89.69112 | 33974 ft | 400 kts | 322° |
| 2026-04-27 10:10 | 29.52254 | -89.72870 | 33971 ft | 400 kts | 322° |
| 2026-04-27 10:11 | 29.56738 | -89.76611 | 33973 ft | 401 kts | 322° |
| 2026-04-27 10:11 | 29.61261 | -89.80387 | 33972 ft | 402 kts | 322° |
| 2026-04-27 10:12 | 29.65781 | -89.84167 | 33971 ft | 402 kts | 322° |
| 2026-04-27 10:12 | 29.70300 | -89.87948 | 33971 ft | 402 kts | 322° |
| 2026-04-27 10:13 | 29.74819 | -89.91734 | 33972 ft | 402 kts | 322° |
| 2026-04-27 10:13 | 29.79348 | -89.95532 | 33971 ft | 402 kts | 322° |
| 2026-04-27 10:14 | 29.83835 | -89.99299 | 33982 ft | 402 kts | 322° |
| 2026-04-27 10:14 | 29.88728 | -90.02483 | 34000 ft | 406 kts | 330° |
| 2026-04-27 10:15 | 29.93737 | -90.05479 | 33988 ft | 405 kts | 330° |
| 2026-04-27 10:15 | 29.98749 | -90.08465 | 33991 ft | 405 kts | 330° |
| 2026-04-27 10:16 | 30.03763 | -90.11454 | 33990 ft | 405 kts | 330° |
| 2026-04-27 10:16 | 30.08773 | -90.14444 | 33988 ft | 405 kts | 330° |
| 2026-04-27 10:17 | 30.13785 | -90.17439 | 33992 ft | 406 kts | 330° |
| 2026-04-27 10:17 | 30.18802 | -90.20440 | 33982 ft | 407 kts | 330° |
| 2026-04-27 10:18 | 30.23826 | -90.23448 | 33981 ft | 406 kts | 330° |
| 2026-04-27 10:18 | 30.28849 | -90.26460 | 33983 ft | 407 kts | 330° |
| 2026-04-27 10:19 | 30.33873 | -90.29475 | 33985 ft | 406 kts | 330° |
| 2026-04-27 10:19 | 30.38895 | -90.32493 | 33987 ft | 406 kts | 330° |
| 2026-04-27 10:20 | 30.43892 | -90.35500 | 33991 ft | 407 kts | 330° |
| 2026-04-27 10:20 | 30.48929 | -90.38534 | 33983 ft | 407 kts | 330° |
| 2026-04-27 10:21 | 30.53957 | -90.41566 | 33989 ft | 407 kts | 330° |
| 2026-04-27 10:21 | 30.58985 | -90.44602 | 33990 ft | 407 kts | 330° |
| 2026-04-27 10:22 | 30.64010 | -90.47640 | 33988 ft | 407 kts | 330° |
| 2026-04-27 10:22 | 30.69047 | -90.50688 | 33983 ft | 407 kts | 330° |
| 2026-04-27 10:23 | 30.74070 | -90.53731 | 33982 ft | 407 kts | 330° |
| 2026-04-27 10:23 | 30.79101 | -90.56783 | 33979 ft | 407 kts | 330° |
| 2026-04-27 10:24 | 30.84123 | -90.59833 | 33978 ft | 407 kts | 330° |
| 2026-04-27 10:24 | 30.89109 | -90.62865 | 33974 ft | 407 kts | 330° |
| 2026-04-27 10:25 | 30.94135 | -90.65925 | 33978 ft | 407 kts | 330° |
| 2026-04-27 10:25 | 30.99155 | -90.68985 | 33982 ft | 407 kts | 330° |
| 2026-04-27 10:26 | 31.04170 | -90.72046 | 33983 ft | 407 kts | 330° |
| 2026-04-27 10:26 | 31.09185 | -90.75109 | 33981 ft | 407 kts | 329° |
| 2026-04-27 10:27 | 31.14202 | -90.78178 | 33976 ft | 407 kts | 329° |
| 2026-04-27 10:27 | 31.19218 | -90.81251 | 33975 ft | 407 kts | 329° |
| 2026-04-27 10:28 | 31.24234 | -90.84326 | 33988 ft | 407 kts | 329° |
| 2026-04-27 10:28 | 31.29249 | -90.87405 | 33971 ft | 407 kts | 329° |
| 2026-04-27 10:29 | 31.34263 | -90.90488 | 33969 ft | 407 kts | 329° |
| 2026-04-27 10:29 | 31.39286 | -90.93578 | 33964 ft | 407 kts | 329° |
| 2026-04-27 10:30 | 31.44301 | -90.96669 | 33965 ft | 407 kts | 329° |
| 2026-04-27 10:30 | 31.49286 | -90.99744 | 33967 ft | 407 kts | 329° |
| 2026-04-27 10:31 | 31.54299 | -91.02841 | 33973 ft | 407 kts | 329° |
| 2026-04-27 10:31 | 31.59312 | -91.05941 | 33969 ft | 407 kts | 329° |
| 2026-04-27 10:32 | 31.64332 | -91.09049 | 33957 ft | 408 kts | 329° |
| 2026-04-27 10:32 | 31.69345 | -91.12157 | 33956 ft | 407 kts | 329° |
| 2026-04-27 10:33 | 31.74358 | -91.15269 | 33958 ft | 408 kts | 329° |
| 2026-04-27 10:33 | 31.79382 | -91.18391 | 33972 ft | 408 kts | 329° |
| 2026-04-27 10:34 | 31.84374 | -91.21497 | 33963 ft | 408 kts | 329° |
| 2026-04-27 10:34 | 31.89393 | -91.24624 | 33954 ft | 408 kts | 329° |
| 2026-04-27 10:35 | 31.94415 | -91.27757 | 33949 ft | 408 kts | 329° |
| 2026-04-27 10:35 | 31.99434 | -91.30891 | 33955 ft | 408 kts | 329° |
| 2026-04-27 10:36 | 32.04455 | -91.34031 | 33955 ft | 409 kts | 329° |
| 2026-04-27 10:36 | 32.09481 | -91.37178 | 33962 ft | 409 kts | 329° |
| 2026-04-27 10:37 | 32.14507 | -91.40329 | 33945 ft | 409 kts | 329° |
| 2026-04-27 10:37 | 32.19537 | -91.43487 | 33958 ft | 409 kts | 329° |
| 2026-04-27 10:38 | 32.24564 | -91.46646 | 33947 ft | 409 kts | 329° |
| 2026-04-27 10:38 | 32.29593 | -91.49811 | 33947 ft | 409 kts | 329° |
| 2026-04-27 10:39 | 32.34618 | -91.52977 | 33957 ft | 409 kts | 328° |
| 2026-04-27 10:39 | 32.39640 | -91.56146 | 33948 ft | 410 kts | 328° |
| 2026-04-27 10:40 | 32.44644 | -91.59306 | 33944 ft | 410 kts | 328° |
| 2026-04-27 10:40 | 32.49670 | -91.62485 | 33941 ft | 410 kts | 328° |
| 2026-04-27 10:41 | 32.54696 | -91.65668 | 33939 ft | 410 kts | 328° |
| 2026-04-27 10:41 | 32.59726 | -91.68858 | 33933 ft | 410 kts | 328° |
| 2026-04-27 10:42 | 32.64757 | -91.72053 | 33932 ft | 411 kts | 328° |
| 2026-04-27 10:42 | 32.68954 | -91.74720 | 33935 ft | 412 kts | 328° |
| 2026-04-27 10:43 | 32.74002 | -91.77933 | 33931 ft | 412 kts | 328° |
| 2026-04-27 10:43 | 32.79050 | -91.81150 | 33934 ft | 412 kts | 328° |
| 2026-04-27 10:44 | 32.84098 | -91.84371 | 33930 ft | 412 kts | 328° |
| 2026-04-27 10:44 | 32.89142 | -91.87595 | 33949 ft | 412 kts | 328° |
| 2026-04-27 10:45 | 32.94211 | -91.90836 | 33940 ft | 414 kts | 328° |
| 2026-04-27 10:45 | 32.99278 | -91.94083 | 33932 ft | 413 kts | 328° |
| 2026-04-27 10:46 | 33.04347 | -91.97334 | 33925 ft | 413 kts | 328° |
| 2026-04-27 10:46 | 33.09406 | -92.00584 | 33914 ft | 413 kts | 328° |
| 2026-04-27 10:47 | 33.14436 | -92.03818 | 33930 ft | 413 kts | 327° |
| 2026-04-27 10:47 | 33.19507 | -92.07084 | 33918 ft | 415 kts | 327° |
| 2026-04-27 10:48 | 33.24596 | -92.10366 | 33914 ft | 415 kts | 327° |
| 2026-04-27 10:48 | 33.29681 | -92.13649 | 33909 ft | 415 kts | 327° |
| 2026-04-27 10:49 | 33.34769 | -92.16938 | 33908 ft | 415 kts | 327° |
| 2026-04-27 10:49 | 33.39850 | -92.20228 | 33902 ft | 415 kts | 327° |
| 2026-04-27 10:50 | 33.44937 | -92.23526 | 33900 ft | 415 kts | 327° |
| 2026-04-27 10:50 | 33.50016 | -92.26823 | 33898 ft | 415 kts | 327° |
| 2026-04-27 10:51 | 33.55100 | -92.30128 | 33893 ft | 415 kts | 327° |
| 2026-04-27 10:51 | 33.60146 | -92.33412 | 33890 ft | 411 kts | 327° |
| 2026-04-27 10:52 | 33.65184 | -92.36696 | 33894 ft | 412 kts | 327° |
| 2026-04-27 10:52 | 33.70223 | -92.39986 | 33897 ft | 413 kts | 326° |
| 2026-04-27 10:53 | 33.77805 | -92.44941 | 33884 ft | 414 kts | 326° |
| 2026-04-27 10:54 | 33.82829 | -92.48231 | 33884 ft | 414 kts | 326° |
| 2026-04-27 10:54 | 33.87883 | -92.51546 | 33880 ft | 413 kts | 326° |
| 2026-04-27 10:55 | 33.92936 | -92.54863 | 33902 ft | 414 kts | 326° |
| 2026-04-27 10:55 | 33.97991 | -92.58187 | 33876 ft | 414 kts | 326° |
| 2026-04-27 10:56 | 34.03044 | -92.61515 | 33871 ft | 414 kts | 326° |
| 2026-04-27 10:56 | 34.08097 | -92.64847 | 33873 ft | 414 kts | 326° |
| 2026-04-27 10:57 | 34.13119 | -92.68162 | 33881 ft | 414 kts | 326° |
| 2026-04-27 10:57 | 34.18162 | -92.71497 | 33868 ft | 412 kts | 326° |
| 2026-04-27 10:58 | 34.23192 | -92.74827 | 33861 ft | 412 kts | 325° |
| 2026-04-27 10:58 | 34.28224 | -92.78162 | 33859 ft | 412 kts | 325° |
| 2026-04-27 10:59 | 34.33254 | -92.81502 | 33862 ft | 412 kts | 325° |
| 2026-04-27 10:59 | 34.38283 | -92.84845 | 33857 ft | 412 kts | 325° |
| 2026-04-27 11:00 | 34.45787 | -92.89843 | 33882 ft | 412 kts | 325° |
| 2026-04-27 11:00 | 34.50819 | -92.93199 | 33862 ft | 413 kts | 325° |
| 2026-04-27 11:01 | 34.55851 | -92.96562 | 33865 ft | 413 kts | 325° |
| 2026-04-27 11:01 | 34.60896 | -92.99936 | 33867 ft | 413 kts | 325° |
| 2026-04-27 11:02 | 34.65930 | -93.03308 | 33857 ft | 413 kts | 325° |
| 2026-04-27 11:02 | 34.70963 | -93.06685 | 33878 ft | 413 kts | 324° |
| 2026-04-27 11:03 | 34.75988 | -93.10060 | 33844 ft | 412 kts | 324° |
| 2026-04-27 11:03 | 34.81011 | -93.13439 | 33829 ft | 413 kts | 324° |
| 2026-04-27 11:04 | 34.85999 | -93.16799 | 33827 ft | 413 kts | 324° |
| 2026-04-27 11:04 | 34.91023 | -93.20188 | 33812 ft | 413 kts | 324° |
| 2026-04-27 11:05 | 34.96055 | -93.23588 | 33823 ft | 413 kts | 324° |
| 2026-04-27 11:05 | 35.01075 | -93.26984 | 33801 ft | 412 kts | 324° |
| 2026-04-27 11:06 | 35.06091 | -93.30382 | 33799 ft | 413 kts | 324° |
| 2026-04-27 11:06 | 35.11110 | -93.33787 | 33796 ft | 413 kts | 324° |
| 2026-04-27 11:07 | 35.16128 | -93.37196 | 33808 ft | 413 kts | 324° |
| 2026-04-27 11:07 | 35.21146 | -93.40611 | 33830 ft | 413 kts | 324° |
| 2026-04-27 11:08 | 35.26161 | -93.44027 | 33797 ft | 413 kts | 324° |
| 2026-04-27 11:08 | 35.31181 | -93.47453 | 33800 ft | 413 kts | 324° |
| 2026-04-27 11:09 | 35.36207 | -93.50887 | 33797 ft | 413 kts | 324° |
| 2026-04-27 11:09 | 35.41190 | -93.54296 | 33783 ft | 413 kts | 324° |
| 2026-04-27 11:10 | 35.46208 | -93.57736 | 33805 ft | 413 kts | 324° |
| 2026-04-27 11:10 | 35.51228 | -93.61180 | 33787 ft | 414 kts | 324° |
| 2026-04-27 11:11 | 35.56260 | -93.64638 | 33781 ft | 414 kts | 324° |
| 2026-04-27 11:11 | 35.61281 | -93.68094 | 33782 ft | 414 kts | 324° |
| 2026-04-27 11:12 | 35.66303 | -93.71554 | 33775 ft | 414 kts | 323° |
| 2026-04-27 11:12 | 35.71331 | -93.75024 | 33787 ft | 414 kts | 323° |
| 2026-04-27 11:13 | 35.76322 | -93.78472 | 33762 ft | 414 kts | 323° |
| 2026-04-27 11:13 | 35.81359 | -93.81958 | 33749 ft | 416 kts | 323° |
| 2026-04-27 11:14 | 35.86407 | -93.85456 | 33762 ft | 416 kts | 323° |
| 2026-04-27 11:14 | 35.91452 | -93.88957 | 33747 ft | 416 kts | 323° |
| 2026-04-27 11:15 | 35.96496 | -93.92464 | 33756 ft | 416 kts | 323° |
| 2026-04-27 11:15 | 36.01536 | -93.95971 | 33754 ft | 416 kts | 323° |
| 2026-04-27 11:16 | 36.06570 | -93.99480 | 33754 ft | 415 kts | 323° |
| 2026-04-27 11:16 | 36.11604 | -94.02995 | 33768 ft | 416 kts | 323° |
| 2026-04-27 11:17 | 36.16638 | -94.06514 | 33764 ft | 415 kts | 323° |
| 2026-04-27 11:17 | 36.21666 | -94.10035 | 33760 ft | 415 kts | 323° |
| 2026-04-27 11:18 | 36.26549 | -94.13785 | 33781 ft | 411 kts | 319° |
| 2026-04-27 11:18 | 36.31284 | -94.17709 | 33776 ft | 412 kts | 319° |
| 2026-04-27 11:19 | 36.36061 | -94.21630 | 33783 ft | 411 kts | 319° |
| 2026-04-27 11:19 | 36.40824 | -94.25536 | 33775 ft | 410 kts | 319° |
| 2026-04-27 11:20 | 36.45589 | -94.29450 | 33775 ft | 411 kts | 319° |
| 2026-04-27 11:20 | 36.50357 | -94.33372 | 33751 ft | 411 kts | 319° |
| 2026-04-27 11:21 | 36.55128 | -94.37302 | 33735 ft | 411 kts | 319° |
| 2026-04-27 11:21 | 36.59894 | -94.41234 | 33701 ft | 411 kts | 319° |
| 2026-04-27 11:22 | 36.64654 | -94.45168 | 33696 ft | 411 kts | 319° |
| 2026-04-27 11:22 | 36.69420 | -94.49111 | 33694 ft | 412 kts | 319° |
| 2026-04-27 11:23 | 36.74192 | -94.53067 | 33691 ft | 412 kts | 319° |
| 2026-04-27 11:23 | 36.78965 | -94.57029 | 33687 ft | 412 kts | 319° |
| 2026-04-27 11:24 | 36.83738 | -94.60997 | 33670 ft | 412 kts | 319° |
| 2026-04-27 11:24 | 36.88484 | -94.64949 | 33675 ft | 412 kts | 319° |
| 2026-04-27 11:25 | 36.93258 | -94.68929 | 33665 ft | 413 kts | 319° |
| 2026-04-27 11:25 | 36.98040 | -94.72923 | 33663 ft | 413 kts | 319° |
| 2026-04-27 11:26 | 37.02827 | -94.76927 | 33663 ft | 413 kts | 319° |
| 2026-04-27 11:26 | 37.07607 | -94.80932 | 33662 ft | 413 kts | 319° |
| 2026-04-27 11:27 | 37.12355 | -94.84916 | 33659 ft | 413 kts | 319° |
| 2026-04-27 11:27 | 37.17138 | -94.88935 | 33653 ft | 415 kts | 320° |
| 2026-04-27 11:28 | 37.21934 | -94.92971 | 33646 ft | 415 kts | 320° |
| 2026-04-27 11:28 | 37.26732 | -94.97016 | 33654 ft | 415 kts | 319° |
| 2026-04-27 11:29 | 37.31508 | -95.01048 | 33646 ft | 413 kts | 319° |
| 2026-04-27 11:29 | 37.36278 | -95.05081 | 33641 ft | 414 kts | 319° |
| 2026-04-27 11:30 | 37.41076 | -95.09145 | 33641 ft | 419 kts | 320° |
| 2026-04-27 11:30 | 37.45098 | -95.12555 | 33636 ft | 420 kts | 320° |
| 2026-04-27 11:31 | 37.50723 | -95.17333 | 33624 ft | 419 kts | 320° |
| 2026-04-27 11:31 | 37.55558 | -95.21448 | 33624 ft | 419 kts | 320° |
| 2026-04-27 11:32 | 37.60394 | -95.25570 | 33640 ft | 419 kts | 321° |
| 2026-04-27 11:32 | 37.65274 | -95.29735 | 33623 ft | 428 kts | 322° |
| 2026-04-27 11:33 | 37.70243 | -95.33983 | 33640 ft | 431 kts | 321° |
| 2026-04-27 11:33 | 37.74348 | -95.37499 | 33623 ft | 427 kts | 321° |
| 2026-04-27 11:34 | 37.79261 | -95.41713 | 33621 ft | 427 kts | 321° |
| 2026-04-27 11:34 | 37.84177 | -95.45935 | 33633 ft | 428 kts | 321° |
| 2026-04-27 11:35 | 37.89170 | -95.50232 | 33627 ft | 439 kts | 321° |
| 2026-04-27 11:35 | 37.94258 | -95.54617 | 33627 ft | 443 kts | 321° |
| 2026-04-27 11:36 | 37.99344 | -95.59008 | 33634 ft | 442 kts | 321° |
| 2026-04-27 11:36 | 38.04401 | -95.63381 | 33643 ft | 442 kts | 321° |
| 2026-04-27 11:37 | 38.09508 | -95.67806 | 33645 ft | 447 kts | 320° |
| 2026-04-27 11:37 | 38.14659 | -95.72274 | 33700 ft | 448 kts | 319° |
| 2026-04-27 11:38 | 38.19796 | -95.76741 | 33661 ft | 446 kts | 319° |
| 2026-04-27 11:38 | 38.24929 | -95.81211 | 33666 ft | 447 kts | 319° |
| 2026-04-27 11:39 | 38.30027 | -95.85658 | 33664 ft | 447 kts | 319° |
| 2026-04-27 11:39 | 38.35155 | -95.90139 | 33655 ft | 446 kts | 319° |
| 2026-04-27 11:40 | 38.40273 | -95.94619 | 33647 ft | 446 kts | 319° |
| 2026-04-27 11:40 | 38.45392 | -95.99108 | 33640 ft | 446 kts | 319° |
| 2026-04-27 11:41 | 38.50506 | -96.03601 | 33674 ft | 446 kts | 319° |
| 2026-04-27 11:41 | 38.55669 | -96.08144 | 33627 ft | 453 kts | 319° |
| 2026-04-27 11:42 | 38.60810 | -96.12677 | 33639 ft | 448 kts | 318° |
| 2026-04-27 11:42 | 38.65931 | -96.17200 | 33613 ft | 446 kts | 318° |
| 2026-04-27 11:43 | 38.71044 | -96.21723 | 33609 ft | 447 kts | 318° |
| 2026-04-27 11:43 | 38.76171 | -96.26267 | 33589 ft | 453 kts | 318° |
| 2026-04-27 11:44 | 38.81382 | -96.30893 | 33605 ft | 456 kts | 318° |
| 2026-04-27 11:44 | 38.86593 | -96.35529 | 33599 ft | 455 kts | 318° |
| 2026-04-27 11:45 | 38.90920 | -96.39384 | 33600 ft | 455 kts | 318° |
| 2026-04-27 11:45 | 38.96977 | -96.44789 | 33594 ft | 459 kts | 319° |
| 2026-04-27 11:46 | 39.02255 | -96.49510 | 33624 ft | 459 kts | 318° |
| 2026-04-27 11:46 | 39.07488 | -96.54200 | 33603 ft | 456 kts | 318° |
| 2026-04-27 11:47 | 39.12694 | -96.58872 | 33658 ft | 456 kts | 318° |
| 2026-04-27 11:47 | 39.17869 | -96.63526 | 33678 ft | 457 kts | 319° |
| 2026-04-27 11:48 | 39.23112 | -96.68250 | 33665 ft | 461 kts | 319° |
| 2026-04-27 11:48 | 39.28367 | -96.72993 | 33642 ft | 461 kts | 319° |
| 2026-04-27 11:49 | 39.33620 | -96.77744 | 33639 ft | 461 kts | 319° |
| 2026-04-27 11:49 | 39.38864 | -96.82495 | 33641 ft | 461 kts | 319° |
| 2026-04-27 11:50 | 39.44143 | -96.87287 | 33660 ft | 463 kts | 319° |
| 2026-04-27 11:50 | 39.49395 | -96.92063 | 33627 ft | 460 kts | 319° |
| 2026-04-27 11:51 | 39.54637 | -96.96839 | 33631 ft | 460 kts | 319° |
| 2026-04-27 11:52 | 39.62463 | -97.03987 | 33617 ft | 464 kts | 319° |
| 2026-04-27 11:52 | 39.67788 | -97.08862 | 33626 ft | 472 kts | 319° |
| 2026-04-27 11:53 | 39.73143 | -97.13773 | 33643 ft | 471 kts | 319° |
| 2026-04-27 11:53 | 39.78495 | -97.18692 | 33643 ft | 471 kts | 319° |
| 2026-04-27 11:54 | 39.83850 | -97.23622 | 33624 ft | 476 kts | 319° |
| 2026-04-27 11:54 | 39.89293 | -97.28645 | 33630 ft | 481 kts | 319° |
| 2026-04-27 11:55 | 39.94750 | -97.33689 | 33643 ft | 480 kts | 319° |
| 2026-04-27 11:55 | 40.00201 | -97.38739 | 33644 ft | 480 kts | 319° |
| 2026-04-27 11:56 | 40.05658 | -97.43803 | 33645 ft | 484 kts | 319° |
| 2026-04-27 11:56 | 40.11131 | -97.48894 | 33650 ft | 486 kts | 319° |
| 2026-04-27 11:57 | 40.16633 | -97.54020 | 33684 ft | 486 kts | 319° |
| 2026-04-27 11:57 | 40.22130 | -97.59153 | 33719 ft | 485 kts | 319° |
| 2026-04-27 11:58 | 40.27630 | -97.64300 | 33679 ft | 488 kts | 319° |
| 2026-04-27 11:58 | 40.33166 | -97.69491 | 33675 ft | 489 kts | 319° |
| 2026-04-27 11:59 | 40.38701 | -97.74690 | 33677 ft | 489 kts | 319° |
| 2026-04-27 11:59 | 40.44230 | -97.79896 | 33676 ft | 489 kts | 319° |
| 2026-04-27 12:00 | 40.49753 | -97.85108 | 33676 ft | 489 kts | 319° |
| 2026-04-27 12:00 | 40.55280 | -97.90331 | 33692 ft | 489 kts | 319° |
| 2026-04-27 12:01 | 40.60799 | -97.95557 | 33697 ft | 489 kts | 319° |
| 2026-04-27 12:01 | 40.66300 | -98.00777 | 33704 ft | 487 kts | 319° |
| 2026-04-27 12:02 | 40.71794 | -98.06001 | 33735 ft | 491 kts | 319° |
| 2026-04-27 12:02 | 40.77335 | -98.11279 | 33716 ft | 490 kts | 319° |
| 2026-04-27 12:03 | 40.82861 | -98.16556 | 33709 ft | 490 kts | 319° |
| 2026-04-27 12:03 | 40.88401 | -98.21856 | 33716 ft | 494 kts | 320° |
| 2026-04-27 12:04 | 40.93979 | -98.27204 | 33721 ft | 495 kts | 320° |
| 2026-04-27 12:04 | 40.99647 | -98.32385 | 33716 ft | 497 kts | 326° |
| 2026-04-27 12:05 | 41.05614 | -98.37021 | 33756 ft | 494 kts | 326° |
| 2026-04-27 12:05 | 41.11587 | -98.41631 | 33724 ft | 499 kts | 326° |
| 2026-04-27 12:06 | 41.17586 | -98.46268 | 33713 ft | 499 kts | 326° |
| 2026-04-27 12:06 | 41.23538 | -98.50876 | 33722 ft | 498 kts | 326° |
| 2026-04-27 12:07 | 41.29548 | -98.55541 | 33718 ft | 504 kts | 326° |
| 2026-04-27 12:07 | 41.35610 | -98.60255 | 33721 ft | 504 kts | 326° |
| 2026-04-27 12:08 | 41.41667 | -98.64976 | 33729 ft | 504 kts | 326° |
| 2026-04-27 12:08 | 41.47720 | -98.69705 | 33727 ft | 506 kts | 326° |
| 2026-04-27 12:09 | 41.53813 | -98.74474 | 33744 ft | 506 kts | 326° |
| 2026-04-27 12:09 | 41.59869 | -98.79226 | 33721 ft | 503 kts | 326° |
| 2026-04-27 12:10 | 41.65915 | -98.83980 | 33735 ft | 504 kts | 325° |
| 2026-04-27 12:10 | 41.71993 | -98.88770 | 33727 ft | 509 kts | 325° |
| 2026-04-27 12:11 | 41.78053 | -98.93556 | 33723 ft | 509 kts | 325° |
| 2026-04-27 12:11 | 41.84149 | -98.98382 | 33730 ft | 508 kts | 325° |
| 2026-04-27 12:12 | 41.90252 | -99.03224 | 33748 ft | 511 kts | 325° |
| 2026-04-27 12:12 | 41.96376 | -99.08093 | 33751 ft | 511 kts | 325° |
| 2026-04-27 12:13 | 42.02466 | -99.12946 | 33779 ft | 505 kts | 325° |
| 2026-04-27 12:13 | 42.08518 | -99.17780 | 33758 ft | 509 kts | 325° |
| 2026-04-27 12:14 | 42.14622 | -99.22666 | 33764 ft | 511 kts | 325° |
| 2026-04-27 12:14 | 42.20730 | -99.27567 | 33767 ft | 510 kts | 324° |
| 2026-04-27 12:15 | 42.26788 | -99.32439 | 33768 ft | 511 kts | 324° |
| 2026-04-27 12:15 | 42.32903 | -99.37366 | 33772 ft | 512 kts | 324° |
| 2026-04-27 12:16 | 42.39026 | -99.42313 | 33786 ft | 512 kts | 324° |
| 2026-04-27 12:16 | 42.45137 | -99.47260 | 33822 ft | 510 kts | 324° |
| 2026-04-27 12:17 | 42.51152 | -99.52142 | 33800 ft | 501 kts | 324° |
| 2026-04-27 12:17 | 42.57128 | -99.57003 | 33793 ft | 500 kts | 324° |
| 2026-04-27 12:18 | 42.63096 | -99.61869 | 33799 ft | 501 kts | 324° |
| 2026-04-27 12:18 | 42.69057 | -99.66739 | 33799 ft | 504 kts | 324° |
| 2026-04-27 12:19 | 42.75069 | -99.71662 | 33807 ft | 504 kts | 324° |
| 2026-04-27 12:19 | 42.81066 | -99.76585 | 33798 ft | 503 kts | 324° |
| 2026-04-27 12:20 | 42.87078 | -99.81531 | 33809 ft | 506 kts | 323° |
| 2026-04-27 12:20 | 42.93090 | -99.86486 | 33837 ft | 499 kts | 324° |
| 2026-04-27 12:21 | 42.98970 | -99.91347 | 33821 ft | 492 kts | 324° |
| 2026-04-27 12:21 | 43.03828 | -99.95371 | 33810 ft | 492 kts | 324° |
| 2026-04-27 12:22 | 43.09695 | -100.00240 | 33823 ft | 493 kts | 324° |
| 2026-04-27 12:22 | 43.15566 | -100.05123 | 33814 ft | 493 kts | 324° |
| 2026-04-27 12:23 | 43.21428 | -100.10011 | 33817 ft | 494 kts | 324° |
| 2026-04-27 12:23 | 43.27307 | -100.14923 | 33825 ft | 495 kts | 324° |
| 2026-04-27 12:24 | 43.33182 | -100.19843 | 33826 ft | 494 kts | 323° |
| 2026-04-27 12:24 | 43.39008 | -100.24733 | 33848 ft | 483 kts | 324° |
| 2026-04-27 12:25 | 43.44710 | -100.29531 | 33845 ft | 479 kts | 324° |
| 2026-04-27 12:25 | 43.50362 | -100.34296 | 33850 ft | 480 kts | 324° |
| 2026-04-27 12:26 | 43.56055 | -100.39107 | 33857 ft | 480 kts | 324° |
| 2026-04-27 12:26 | 43.61732 | -100.43915 | 33855 ft | 478 kts | 324° |
| 2026-04-27 12:27 | 43.67400 | -100.48726 | 33867 ft | 478 kts | 324° |
| 2026-04-27 12:27 | 43.73071 | -100.53551 | 33860 ft | 478 kts | 324° |
| 2026-04-27 12:28 | 43.78744 | -100.58389 | 33910 ft | 479 kts | 324° |
| 2026-04-27 12:28 | 43.84350 | -100.63179 | 33890 ft | 468 kts | 324° |
| 2026-04-27 12:29 | 43.89886 | -100.67921 | 33864 ft | 467 kts | 324° |
| 2026-04-27 12:29 | 43.95374 | -100.72632 | 33882 ft | 468 kts | 324° |
| 2026-04-27 12:30 | 44.00919 | -100.77402 | 33893 ft | 468 kts | 324° |
| 2026-04-27 12:30 | 44.06457 | -100.82177 | 33874 ft | 468 kts | 324° |
| 2026-04-27 12:31 | 44.11991 | -100.86960 | 33894 ft | 468 kts | 324° |
| 2026-04-27 12:31 | 44.17534 | -100.91761 | 33892 ft | 469 kts | 324° |
| 2026-04-27 12:32 | 44.23072 | -100.96568 | 33901 ft | 468 kts | 324° |
| 2026-04-27 12:32 | 44.28566 | -101.01347 | 33894 ft | 468 kts | 324° |
| 2026-04-27 12:33 | 44.34102 | -101.06174 | 33911 ft | 468 kts | 324° |
| 2026-04-27 12:33 | 44.39626 | -101.11001 | 33907 ft | 468 kts | 324° |
| 2026-04-27 12:34 | 44.45156 | -101.15845 | 33914 ft | 468 kts | 324° |
| 2026-04-27 12:34 | 44.50673 | -101.20687 | 33909 ft | 468 kts | 324° |
| 2026-04-27 12:35 | 44.56192 | -101.25544 | 33898 ft | 468 kts | 324° |
| 2026-04-27 12:35 | 44.61712 | -101.30411 | 33912 ft | 468 kts | 324° |
| 2026-04-27 12:36 | 44.67229 | -101.35288 | 33915 ft | 469 kts | 324° |
| 2026-04-27 12:36 | 44.72747 | -101.40174 | 33914 ft | 469 kts | 324° |
| 2026-04-27 12:37 | 44.78262 | -101.45065 | 33946 ft | 467 kts | 324° |
| 2026-04-27 12:37 | 44.83685 | -101.49891 | 33939 ft | 462 kts | 324° |
| 2026-04-27 12:38 | 44.89124 | -101.54739 | 33938 ft | 462 kts | 324° |
| 2026-04-27 12:38 | 44.94554 | -101.59590 | 33938 ft | 462 kts | 324° |
| 2026-04-27 12:39 | 44.99978 | -101.64448 | 33954 ft | 462 kts | 324° |
| 2026-04-27 12:39 | 45.05394 | -101.69307 | 33947 ft | 460 kts | 324° |
| 2026-04-27 12:40 | 45.10471 | -101.74728 | 33974 ft | 456 kts | 316° |
| 2026-04-27 12:40 | 45.15308 | -101.80557 | 33964 ft | 457 kts | 316° |
| 2026-04-27 12:41 | 45.20142 | -101.86413 | 33969 ft | 456 kts | 316° |
| 2026-04-27 12:41 | 45.24929 | -101.92225 | 33981 ft | 456 kts | 316° |
| 2026-04-27 12:42 | 45.29740 | -101.98082 | 33989 ft | 456 kts | 315° |
| 2026-04-27 12:42 | 45.34549 | -102.03949 | 34008 ft | 455 kts | 315° |
| 2026-04-27 12:43 | 45.39349 | -102.09818 | 34011 ft | 454 kts | 315° |
| 2026-04-27 12:43 | 45.44052 | -102.15582 | 34004 ft | 451 kts | 315° |
| 2026-04-27 12:44 | 45.48777 | -102.21386 | 34007 ft | 451 kts | 315° |
| 2026-04-27 12:44 | 45.53479 | -102.27177 | 34027 ft | 451 kts | 315° |
| 2026-04-27 12:45 | 45.58195 | -102.32995 | 34023 ft | 450 kts | 315° |
| 2026-04-27 12:45 | 45.62934 | -102.38857 | 34026 ft | 450 kts | 315° |
| 2026-04-27 12:46 | 45.67642 | -102.44695 | 34031 ft | 450 kts | 315° |
| 2026-04-27 12:46 | 45.72006 | -102.50118 | 34033 ft | 449 kts | 315° |
| 2026-04-27 12:47 | 45.74745 | -102.53527 | 34029 ft | 449 kts | 315° |
| 2026-04-27 12:47 | 45.79459 | -102.59406 | 34024 ft | 449 kts | 315° |
| 2026-04-27 12:48 | 45.84162 | -102.65284 | 34014 ft | 449 kts | 315° |
| 2026-04-27 12:48 | 45.88862 | -102.71174 | 34012 ft | 448 kts | 315° |
| 2026-04-27 12:49 | 45.93539 | -102.77046 | 34014 ft | 445 kts | 315° |
| 2026-04-27 12:49 | 45.98188 | -102.82899 | 34009 ft | 444 kts | 315° |
| 2026-04-27 12:50 | 46.02841 | -102.88770 | 34014 ft | 444 kts | 315° |
| 2026-04-27 12:50 | 46.07483 | -102.94641 | 34030 ft | 444 kts | 315° |
| 2026-04-27 12:51 | 46.12115 | -103.00511 | 34050 ft | 444 kts | 315° |
| 2026-04-27 12:51 | 46.16748 | -103.06398 | 34068 ft | 444 kts | 315° |
| 2026-04-27 12:52 | 46.21379 | -103.12295 | 34084 ft | 444 kts | 315° |
| 2026-04-27 12:52 | 46.26007 | -103.18202 | 34034 ft | 443 kts | 315° |
| 2026-04-27 12:53 | 46.32937 | -103.27075 | 34044 ft | 443 kts | 315° |
| 2026-04-27 12:53 | 46.37519 | -103.32958 | 34058 ft | 443 kts | 315° |
| 2026-04-27 12:54 | 46.42130 | -103.38892 | 34111 ft | 442 kts | 315° |
| 2026-04-27 12:54 | 46.46712 | -103.44804 | 34099 ft | 441 kts | 315° |
| 2026-04-27 12:55 | 46.51291 | -103.50724 | 34109 ft | 441 kts | 314° |
| 2026-04-27 12:55 | 46.55867 | -103.56656 | 34117 ft | 441 kts | 314° |
| 2026-04-27 12:56 | 46.60439 | -103.62596 | 34126 ft | 441 kts | 314° |
| 2026-04-27 12:56 | 46.65012 | -103.68551 | 34127 ft | 441 kts | 314° |
| 2026-04-27 12:57 | 46.69584 | -103.74519 | 34118 ft | 441 kts | 314° |
| 2026-04-27 12:57 | 46.74146 | -103.80488 | 34143 ft | 441 kts | 314° |
| 2026-04-27 12:58 | 46.78703 | -103.86465 | 34148 ft | 440 kts | 314° |
| 2026-04-27 12:58 | 46.83219 | -103.92402 | 34153 ft | 440 kts | 314° |
| 2026-04-27 12:59 | 46.87770 | -103.98398 | 34154 ft | 440 kts | 314° |
| 2026-04-27 12:59 | 46.92309 | -104.04395 | 34172 ft | 440 kts | 314° |
| 2026-04-27 13:00 | 46.96846 | -104.10402 | 34172 ft | 440 kts | 314° |
| 2026-04-27 13:00 | 47.01382 | -104.16422 | 34173 ft | 440 kts | 313° |
| 2026-04-27 13:01 | 47.05918 | -104.22457 | 34170 ft | 440 kts | 313° |
| 2026-04-27 13:01 | 47.10448 | -104.28498 | 34178 ft | 440 kts | 313° |
| 2026-04-27 13:02 | 47.14979 | -104.34555 | 34177 ft | 440 kts | 313° |
| 2026-04-27 13:02 | 47.19507 | -104.40623 | 34172 ft | 440 kts | 313° |
| 2026-04-27 13:03 | 47.24033 | -104.46703 | 34165 ft | 440 kts | 313° |
| 2026-04-27 13:03 | 47.28551 | -104.52786 | 34159 ft | 440 kts | 313° |
| 2026-04-27 13:04 | 47.33072 | -104.58889 | 34178 ft | 441 kts | 313° |
| 2026-04-27 13:04 | 47.37565 | -104.64968 | 34178 ft | 441 kts | 313° |
| 2026-04-27 13:05 | 47.42085 | -104.71099 | 34189 ft | 441 kts | 313° |
| 2026-04-27 13:05 | 47.46600 | -104.77239 | 34200 ft | 441 kts | 313° |
| 2026-04-27 13:06 | 47.51008 | -104.83246 | 34212 ft | 441 kts | 312° |
| 2026-04-27 13:06 | 47.55511 | -104.89399 | 34209 ft | 440 kts | 312° |
| 2026-04-27 13:07 | 47.60011 | -104.95561 | 34209 ft | 440 kts | 312° |
| 2026-04-27 13:07 | 47.64508 | -105.01737 | 34212 ft | 440 kts | 312° |
| 2026-04-27 13:08 | 47.68238 | -105.06870 | 34229 ft | 440 kts | 312° |
| 2026-04-27 13:08 | 47.72717 | -105.13045 | 34216 ft | 439 kts | 312° |
| 2026-04-27 13:09 | 47.77188 | -105.19229 | 34218 ft | 439 kts | 312° |
| 2026-04-27 13:09 | 47.81656 | -105.25422 | 34226 ft | 439 kts | 312° |
| 2026-04-27 13:10 | 47.86120 | -105.31624 | 34218 ft | 439 kts | 312° |
| 2026-04-27 13:10 | 47.90583 | -105.37839 | 34211 ft | 439 kts | 311° |
| 2026-04-27 13:11 | 47.95039 | -105.44061 | 34212 ft | 439 kts | 311° |
| 2026-04-27 13:11 | 47.99487 | -105.50288 | 34195 ft | 438 kts | 311° |
| 2026-04-27 13:12 | 48.03933 | -105.56528 | 34203 ft | 439 kts | 311° |
| 2026-04-27 13:12 | 48.08349 | -105.62739 | 34194 ft | 438 kts | 311° |
| 2026-04-27 13:13 | 48.12796 | -105.69011 | 34192 ft | 439 kts | 311° |
| 2026-04-27 13:13 | 48.17238 | -105.75290 | 34199 ft | 438 kts | 311° |
| 2026-04-27 13:14 | 48.21671 | -105.81573 | 34236 ft | 438 kts | 311° |
| 2026-04-27 13:14 | 48.26093 | -105.87857 | 34227 ft | 438 kts | 311° |
| 2026-04-27 13:15 | 48.30484 | -105.94112 | 34242 ft | 438 kts | 311° |
| 2026-04-27 13:15 | 48.34901 | -106.00419 | 34236 ft | 438 kts | 311° |
| 2026-04-27 13:16 | 48.39316 | -106.06740 | 34240 ft | 438 kts | 311° |
| 2026-04-27 13:16 | 48.43726 | -106.13069 | 34240 ft | 438 kts | 311° |
| 2026-04-27 13:17 | 48.48140 | -106.19418 | 34250 ft | 439 kts | 311° |
| 2026-04-27 13:17 | 48.52557 | -106.25791 | 34242 ft | 440 kts | 311° |
| 2026-04-27 13:18 | 48.56972 | -106.32175 | 34242 ft | 439 kts | 311° |
| 2026-04-27 13:18 | 48.61384 | -106.38571 | 34239 ft | 439 kts | 311° |
| 2026-04-27 13:19 | 48.65784 | -106.44968 | 34245 ft | 439 kts | 311° |
| 2026-04-27 13:19 | 48.70177 | -106.51369 | 34246 ft | 439 kts | 311° |
| 2026-04-27 13:20 | 48.74569 | -106.57787 | 34252 ft | 439 kts | 311° |
| 2026-04-27 13:20 | 48.78957 | -106.64212 | 34242 ft | 438 kts | 311° |
| 2026-04-27 13:21 | 48.83305 | -106.70598 | 34252 ft | 438 kts | 311° |
| 2026-04-27 13:21 | 48.87678 | -106.77037 | 34256 ft | 438 kts | 311° |
| 2026-04-27 13:22 | 48.92051 | -106.83491 | 34248 ft | 438 kts | 311° |
| 2026-04-27 13:22 | 48.96413 | -106.89944 | 34268 ft | 438 kts | 311° |
| 2026-04-27 13:23 | 49.00769 | -106.96408 | 34255 ft | 436 kts | 312° |
| 2026-04-27 13:23 | 49.05105 | -107.02858 | 34249 ft | 436 kts | 312° |
| 2026-04-27 13:24 | 49.09446 | -107.09332 | 34245 ft | 436 kts | 312° |
| 2026-04-27 13:24 | 49.13775 | -107.15804 | 34262 ft | 436 kts | 312° |
| 2026-04-27 13:25 | 49.18102 | -107.22291 | 34245 ft | 434 kts | 312° |
| 2026-04-27 13:25 | 49.22384 | -107.28726 | 34244 ft | 435 kts | 312° |
| 2026-04-27 13:26 | 49.26695 | -107.35222 | 34241 ft | 434 kts | 312° |
| 2026-04-27 13:26 | 49.31002 | -107.41728 | 34239 ft | 434 kts | 312° |
| 2026-04-27 13:27 | 49.35304 | -107.48244 | 34246 ft | 434 kts | 313° |
| 2026-04-27 13:27 | 49.39590 | -107.54753 | 34239 ft | 434 kts | 313° |
| 2026-04-27 13:28 | 49.43877 | -107.61281 | 34239 ft | 434 kts | 313° |
| 2026-04-27 13:28 | 49.48161 | -107.67820 | 34237 ft | 434 kts | 313° |
| 2026-04-27 13:29 | 49.52438 | -107.74364 | 34243 ft | 434 kts | 313° |
| 2026-04-27 13:29 | 49.56705 | -107.80913 | 34237 ft | 433 kts | 313° |
| 2026-04-27 13:30 | 49.60970 | -107.87474 | 34236 ft | 433 kts | 313° |
| 2026-04-27 13:30 | 49.65233 | -107.94050 | 34230 ft | 433 kts | 313° |
| 2026-04-27 13:31 | 49.69491 | -108.00635 | 34228 ft | 433 kts | 313° |
| 2026-04-27 13:31 | 49.73722 | -108.07197 | 34228 ft | 433 kts | 313° |
| 2026-04-27 13:32 | 49.77974 | -108.13807 | 34230 ft | 433 kts | 312° |
| 2026-04-27 13:32 | 49.82221 | -108.20427 | 34228 ft | 433 kts | 312° |
| 2026-04-27 13:33 | 49.86463 | -108.27058 | 34228 ft | 433 kts | 312° |
| 2026-04-27 13:33 | 49.90701 | -108.33699 | 34226 ft | 433 kts | 313° |
| 2026-04-27 13:34 | 49.94941 | -108.40362 | 34221 ft | 434 kts | 312° |
| 2026-04-27 13:34 | 49.99179 | -108.47039 | 34223 ft | 434 kts | 312° |
| 2026-04-27 13:35 | 50.03384 | -108.53681 | 34230 ft | 434 kts | 312° |
| 2026-04-27 13:35 | 50.07610 | -108.60373 | 34239 ft | 433 kts | 313° |
| 2026-04-27 13:36 | 50.11835 | -108.67084 | 34230 ft | 434 kts | 313° |
| 2026-04-27 13:36 | 50.16057 | -108.73807 | 34230 ft | 434 kts | 313° |
| 2026-04-27 13:37 | 50.20277 | -108.80545 | 34231 ft | 434 kts | 313° |
| 2026-04-27 13:37 | 50.24487 | -108.87286 | 34232 ft | 434 kts | 313° |
| 2026-04-27 13:38 | 50.28697 | -108.94043 | 34236 ft | 434 kts | 313° |
| 2026-04-27 13:38 | 50.32901 | -109.00810 | 34233 ft | 433 kts | 313° |
| 2026-04-27 13:39 | 50.37098 | -109.07584 | 34231 ft | 433 kts | 313° |
| 2026-04-27 13:39 | 50.41295 | -109.14373 | 34235 ft | 433 kts | 313° |
| 2026-04-27 13:40 | 50.45458 | -109.21122 | 34242 ft | 433 kts | 313° |
| 2026-04-27 13:40 | 50.49645 | -109.27929 | 34236 ft | 433 kts | 313° |
| 2026-04-27 13:41 | 50.53829 | -109.34749 | 34234 ft | 433 kts | 313° |
| 2026-04-27 13:41 | 50.58007 | -109.41579 | 34242 ft | 433 kts | 313° |
| 2026-04-27 13:42 | 50.62182 | -109.48420 | 34239 ft | 433 kts | 314° |
| 2026-04-27 13:42 | 50.66344 | -109.55259 | 34241 ft | 432 kts | 314° |
| 2026-04-27 13:43 | 50.70500 | -109.62106 | 34244 ft | 432 kts | 314° |
| 2026-04-27 13:43 | 50.74651 | -109.68963 | 34247 ft | 432 kts | 314° |
| 2026-04-27 13:44 | 50.78799 | -109.75834 | 34241 ft | 432 kts | 314° |
| 2026-04-27 13:44 | 50.82942 | -109.82715 | 34240 ft | 432 kts | 314° |
| 2026-04-27 13:45 | 50.87042 | -109.89543 | 34243 ft | 430 kts | 314° |
| 2026-04-27 13:45 | 50.91169 | -109.96433 | 34242 ft | 430 kts | 314° |
| 2026-04-27 13:46 | 50.95753 | -110.02436 | 34239 ft | 428 kts | 325° |
| 2026-04-27 13:46 | 51.00596 | -110.07969 | 34240 ft | 429 kts | 325° |
| 2026-04-27 13:47 | 51.05419 | -110.13443 | 34237 ft | 427 kts | 325° |
| 2026-04-27 13:47 | 51.10242 | -110.18930 | 34237 ft | 426 kts | 325° |
| 2026-04-27 13:48 | 51.15064 | -110.24426 | 34237 ft | 426 kts | 325° |
| 2026-04-27 13:48 | 51.19886 | -110.29938 | 34235 ft | 426 kts | 325° |
| 2026-04-27 13:49 | 51.24707 | -110.35462 | 34238 ft | 425 kts | 326° |
| 2026-04-27 13:49 | 51.29489 | -110.40957 | 34230 ft | 423 kts | 326° |
| 2026-04-27 13:50 | 51.34264 | -110.46458 | 34230 ft | 423 kts | 326° |
| 2026-04-27 13:50 | 51.39042 | -110.51978 | 34235 ft | 423 kts | 326° |
| 2026-04-27 13:51 | 51.43815 | -110.57505 | 34226 ft | 422 kts | 326° |
| 2026-04-27 13:51 | 51.48510 | -110.62957 | 34227 ft | 418 kts | 326° |
| 2026-04-27 13:52 | 51.53214 | -110.68433 | 34227 ft | 418 kts | 326° |
| 2026-04-27 13:52 | 51.57919 | -110.73924 | 34224 ft | 418 kts | 326° |
| 2026-04-27 13:53 | 51.64966 | -110.82177 | 34229 ft | 418 kts | 326° |
| 2026-04-27 13:54 | 51.69662 | -110.87694 | 34226 ft | 417 kts | 326° |
| 2026-04-27 13:54 | 51.74355 | -110.93223 | 34222 ft | 417 kts | 326° |
| 2026-04-27 13:55 | 51.79039 | -110.98755 | 34222 ft | 417 kts | 326° |
| 2026-04-27 13:55 | 51.83725 | -111.04304 | 34230 ft | 417 kts | 326° |
| 2026-04-27 13:56 | 51.88366 | -111.09814 | 34217 ft | 415 kts | 326° |
| 2026-04-27 13:56 | 51.93023 | -111.15358 | 34229 ft | 415 kts | 326° |
| 2026-04-27 13:57 | 51.97672 | -111.20907 | 34230 ft | 415 kts | 325° |
| 2026-04-27 13:57 | 52.02323 | -111.26473 | 34222 ft | 415 kts | 325° |
| 2026-04-27 13:58 | 52.06187 | -111.31107 | 34219 ft | 415 kts | 325° |
| 2026-04-27 13:58 | 52.10825 | -111.36686 | 34233 ft | 415 kts | 325° |
| 2026-04-27 13:59 | 52.15463 | -111.42277 | 34233 ft | 415 kts | 325° |
| 2026-04-27 13:59 | 52.20099 | -111.47882 | 34239 ft | 415 kts | 325° |
| 2026-04-27 14:00 | 52.24657 | -111.53406 | 34219 ft | 394 kts | 325° |
| 2026-04-27 14:00 | 52.26820 | -111.56034 | 34107 ft | 382 kts | 326° |
| 2026-04-27 14:00 | 52.28938 | -111.58609 | 33707 ft | 378 kts | 326° |
| 2026-04-27 14:00 | 52.31044 | -111.61173 | 33171 ft | 377 kts | 326° |
| 2026-04-27 14:01 | 52.33146 | -111.63735 | 32649 ft | 376 kts | 326° |
| 2026-04-27 14:01 | 52.35240 | -111.66291 | 32191 ft | 374 kts | 326° |
| 2026-04-27 14:01 | 52.37292 | -111.68798 | 31771 ft | 372 kts | 326° |
| 2026-04-27 14:01 | 52.39354 | -111.71320 | 31344 ft | 369 kts | 326° |
| 2026-04-27 14:02 | 52.41403 | -111.73830 | 30918 ft | 367 kts | 326° |
| 2026-04-27 14:02 | 52.43445 | -111.76335 | 30501 ft | 365 kts | 326° |
| 2026-04-27 14:02 | 52.45474 | -111.78826 | 30038 ft | 364 kts | 326° |
| 2026-04-27 14:02 | 52.47493 | -111.81307 | 29580 ft | 361 kts | 326° |
| 2026-04-27 14:03 | 52.49492 | -111.83767 | 29176 ft | 357 kts | 326° |
| 2026-04-27 14:03 | 52.51468 | -111.86201 | 28774 ft | 353 kts | 326° |
| 2026-04-27 14:03 | 52.53425 | -111.88614 | 28402 ft | 350 kts | 326° |
| 2026-04-27 14:03 | 52.55361 | -111.91005 | 28022 ft | 347 kts | 326° |
| 2026-04-27 14:04 | 52.57281 | -111.93379 | 27647 ft | 344 kts | 326° |
| 2026-04-27 14:04 | 52.59181 | -111.95730 | 27284 ft | 341 kts | 326° |
| 2026-04-27 14:04 | 52.61065 | -111.98065 | 26923 ft | 338 kts | 326° |
| 2026-04-27 14:04 | 52.62932 | -112.00381 | 26566 ft | 335 kts | 326° |
| 2026-04-27 14:05 | 52.64787 | -112.02683 | 26210 ft | 332 kts | 325° |
| 2026-04-27 14:05 | 52.66623 | -112.04966 | 25864 ft | 329 kts | 325° |
| 2026-04-27 14:05 | 52.68446 | -112.07234 | 25517 ft | 327 kts | 325° |
| 2026-04-27 14:05 | 52.70250 | -112.09481 | 25182 ft | 324 kts | 325° |
| 2026-04-27 14:06 | 52.72044 | -112.11718 | 24841 ft | 322 kts | 325° |
| 2026-04-27 14:06 | 52.73820 | -112.13936 | 24497 ft | 319 kts | 326° |
| 2026-04-27 14:06 | 52.75587 | -112.16142 | 24173 ft | 317 kts | 326° |
| 2026-04-27 14:06 | 52.77339 | -112.18335 | 23844 ft | 315 kts | 326° |
| 2026-04-27 14:07 | 52.79078 | -112.20512 | 23461 ft | 312 kts | 326° |
| 2026-04-27 14:07 | 52.80800 | -112.22671 | 23106 ft | 309 kts | 326° |
| 2026-04-27 14:07 | 52.82504 | -112.24809 | 22783 ft | 306 kts | 326° |
| 2026-04-27 14:07 | 52.84179 | -112.26911 | 22477 ft | 308 kts | 326° |
| 2026-04-27 14:08 | 52.85898 | -112.29071 | 22154 ft | 313 kts | 325° |
| 2026-04-27 14:08 | 52.87640 | -112.31262 | 21825 ft | 315 kts | 325° |
| 2026-04-27 14:08 | 52.89381 | -112.33454 | 21506 ft | 314 kts | 325° |
| 2026-04-27 14:08 | 52.91114 | -112.35638 | 21182 ft | 312 kts | 325° |
| 2026-04-27 14:09 | 52.92839 | -112.37815 | 20855 ft | 311 kts | 325° |
| 2026-04-27 14:09 | 52.94553 | -112.39979 | 20540 ft | 309 kts | 325° |
| 2026-04-27 14:09 | 52.96263 | -112.42140 | 20223 ft | 308 kts | 325° |
| 2026-04-27 14:09 | 52.97957 | -112.44283 | 19906 ft | 305 kts | 325° |
| 2026-04-27 14:10 | 52.99635 | -112.46409 | 19593 ft | 302 kts | 325° |
| 2026-04-27 14:10 | 53.01300 | -112.48522 | 19282 ft | 299 kts | 324° |
| 2026-04-27 14:10 | 53.02748 | -112.51045 | 18776 ft | 309 kts | 303° |
| 2026-04-27 14:10 | 53.03540 | -112.54379 | 18424 ft | 312 kts | 289° |
| 2026-04-27 14:11 | 53.04131 | -112.57851 | 17971 ft | 313 kts | 289° |
| 2026-04-27 14:11 | 53.04707 | -112.61339 | 17536 ft | 313 kts | 288° |
| 2026-04-27 14:11 | 53.05271 | -112.64836 | 17102 ft | 313 kts | 288° |
| 2026-04-27 14:11 | 53.05823 | -112.68331 | 16690 ft | 313 kts | 287° |
| 2026-04-27 14:12 | 53.06370 | -112.71835 | 16268 ft | 314 kts | 287° |
| 2026-04-27 14:12 | 53.06916 | -112.75348 | 15831 ft | 314 kts | 287° |
| 2026-04-27 14:12 | 53.07459 | -112.78866 | 15431 ft | 314 kts | 286° |
| 2026-04-27 14:12 | 53.08000 | -112.82383 | 15007 ft | 314 kts | 286° |
| 2026-04-27 14:13 | 53.08543 | -112.85912 | 14583 ft | 315 kts | 286° |
| 2026-04-27 14:13 | 53.09078 | -112.89406 | 14166 ft | 316 kts | 285° |
| 2026-04-27 14:13 | 53.09629 | -112.93003 | 13689 ft | 317 kts | 285° |
| 2026-04-27 14:13 | 53.10172 | -112.96565 | 13229 ft | 317 kts | 285° |
| 2026-04-27 14:14 | 53.10715 | -113.00126 | 12797 ft | 317 kts | 285° |
| 2026-04-27 14:14 | 53.11254 | -113.03676 | 12347 ft | 316 kts | 284° |
| 2026-04-27 14:14 | 53.12008 | -113.07092 | 11885 ft | 316 kts | 302° |
| 2026-04-27 14:14 | 53.13437 | -113.09856 | 11446 ft | 315 kts | 314° |
| 2026-04-27 14:15 | 53.14948 | -113.12493 | 11061 ft | 314 kts | 313° |
| 2026-04-27 14:15 | 53.16434 | -113.15100 | 10656 ft | 314 kts | 313° |
| 2026-04-27 14:15 | 53.17941 | -113.17739 | 10217 ft | 315 kts | 313° |
| 2026-04-27 14:15 | 53.19451 | -113.20383 | 9772 ft | 315 kts | 313° |
| 2026-04-27 14:16 | 53.20964 | -113.23033 | 9314 ft | 315 kts | 313° |
| 2026-04-27 14:16 | 53.22474 | -113.25679 | 8877 ft | 315 kts | 312° |
| 2026-04-27 14:16 | 53.23979 | -113.28321 | 8462 ft | 314 kts | 312° |
| 2026-04-27 14:16 | 53.25535 | -113.30855 | 8093 ft | 311 kts | 323° |
| 2026-04-27 14:17 | 53.27522 | -113.32152 | 7760 ft | 308 kts | 355° |
| 2026-04-27 14:17 | 53.29622 | -113.31854 | 7527 ft | 298 kts | 8° |
| 2026-04-27 14:17 | 53.31635 | -113.31444 | 7318 ft | 286 kts | 6° |
| 2026-04-27 14:17 | 53.33582 | -113.31093 | 7086 ft | 276 kts | 6° |
| 2026-04-27 14:18 | 53.35463 | -113.30764 | 6840 ft | 268 kts | 6° |
| 2026-04-27 14:18 | 53.37287 | -113.30450 | 6606 ft | 259 kts | 6° |
| 2026-04-27 14:18 | 53.39055 | -113.30150 | 6360 ft | 251 kts | 6° |
| 2026-04-27 14:18 | 53.40768 | -113.30027 | 6104 ft | 243 kts | 349° |
| 2026-04-27 14:19 | 53.42248 | -113.31174 | 5832 ft | 232 kts | 315° |
| 2026-04-27 14:19 | 53.43236 | -113.33204 | 5642 ft | 222 kts | 303° |
| 2026-04-27 14:19 | 53.44151 | -113.35305 | 5503 ft | 223 kts | 303° |
| 2026-04-27 14:19 | 53.45061 | -113.37418 | 5334 ft | 223 kts | 303° |
| 2026-04-27 14:20 | 53.45747 | -113.39683 | 5165 ft | 215 kts | 275° |
| 2026-04-27 14:20 | 53.45460 | -113.41960 | 5176 ft | 189 kts | 234° |
| 2026-04-27 14:20 | 53.44578 | -113.43373 | 5256 ft | 169 kts | 216° |
| 2026-04-27 14:20 | 53.43642 | -113.44540 | 5131 ft | 167 kts | 215° |
| 2026-04-27 14:21 | 53.42706 | -113.45688 | 4982 ft | 167 kts | 216° |
| 2026-04-27 14:21 | 53.41805 | -113.46850 | 4726 ft | 160 kts | 218° |
| 2026-04-27 14:21 | 53.40948 | -113.47995 | 4457 ft | 156 kts | 218° |
| 2026-04-27 14:21 | 53.40106 | -113.49047 | 4135 ft | 143 kts | 213° |
| 2026-04-27 14:22 | 53.39303 | -113.49936 | 3860 ft | 138 kts | 213° |
| 2026-04-27 14:22 | 53.38498 | -113.50819 | 3697 ft | 139 kts | 213° |
| 2026-04-27 14:22 | 53.37699 | -113.51738 | 3571 ft | 139 kts | 213° |
| 2026-04-27 14:22 | 53.36897 | -113.52629 | 3375 ft | 138 kts | 212° |
| 2026-04-27 14:23 | 53.36110 | -113.53539 | 3073 ft | 137 kts | 213° |
| 2026-04-27 14:23 | 53.35314 | -113.54458 | 2922 ft | 140 kts | 212° |
| 2026-04-27 14:23 | 53.34510 | -113.55389 | 2741 ft | 141 kts | 213° |
| 2026-04-27 14:23 | 53.33715 | -113.56340 | 2514 ft | 138 kts | 213° |
| 2026-04-27 14:24 | 53.32960 | -113.57208 | 2391 ft | 127 kts | 213° |
| 2026-04-27 14:24 | 53.32382 | -113.57877 | 2389 ft | 67 kts | 215° |
| 2026-04-27 14:24 | 53.32125 | -113.58172 | 2391 ft | 40 kts | 214° |
| 2026-04-27 14:24 | 53.31887 | -113.58443 | 2386 ft | 41 kts | 210° |
| 2026-04-27 14:25 | 53.31656 | -113.58449 | 2386 ft | 23 kts | 169° |
| 2026-04-27 14:25 | 53.31506 | -113.58486 | 2387 ft | 23 kts | 218° |
| 2026-04-27 14:25 | 53.31377 | -113.58638 | 2390 ft | 23 kts | 215° |
| 2026-04-27 14:25 | 53.31244 | -113.58793 | 2389 ft | 24 kts | 214° |
| 2026-04-27 14:26 | 53.31112 | -113.58941 | 2389 ft | 18 kts | 201° |
| 2026-04-27 14:26 | 53.31029 | -113.58836 | 2388 ft | 16 kts | 132° |
| 2026-04-27 14:26 | 53.30911 | -113.58795 | 2387 ft | 20 kts | 177° |
| 2026-04-27 14:26 | 53.30783 | -113.58879 | 2391 ft | 21 kts | 179° |
| 2026-04-27 14:27 | 53.30654 | -113.58869 | 2387 ft | 17 kts | 176° |
| 2026-04-27 14:27 | 53.30598 | -113.58727 | 2387 ft | 17 kts | 96° |
| 2026-04-27 14:27 | 53.30583 | -113.58591 | 2387 ft | 6 kts | 45° |
| 2026-04-27 14:27 | 53.30619 | -113.58547 | 2387 ft | 6 kts | 40° |
| 2026-04-27 14:28 | 53.30634 | -113.58525 | 2391 ft | 1 kts | 41° |
| 2026-04-27 14:28 | 53.30635 | -113.58524 | 2391 ft | 0 kts | 41° |